Time;durP1;ratioP1;P1;durP2;ratioP2;P2;SDS_P1;SDS_P2;PMS_P1;PMS_P2;Temp;Humidity;BMP_temperature;BMP_pressure;BME280_temperature;BME280_humidity;BME280_pressure;Samples;Min_cycle;Max_cycle;Signal;HPM_P1;HPM_P2
2024/01/09 00:01:45;;;;;;;18.00;7.30;;;;;;;-12.18;50.66;100681.81;107513;1260;67892;-39
2024/01/09 00:04:13;;;;;;;16.10;6.70;;;;;;;-12.21;50.68;100685.20;107577;1254;71397;-39
2024/01/09 00:06:40;;;;;;;13.60;6.70;;;;;;;-12.23;50.89;100683.70;106872;1254;1002949;-39
2024/01/09 00:09:08;;;;;;;18.40;7.40;;;;;;;-12.28;50.85;100684.21;107479;1253;60447;-39
2024/01/09 00:11:35;;;;;;;14.40;7.20;;;;;;;-12.28;50.49;100684.20;107581;1254;72647;-40
2024/01/09 00:14:03;;;;;;;20.50;7.90;;;;;;;-12.24;50.52;100692.78;107611;1254;67619;-39
2024/01/09 00:16:30;;;;;;;16.80;7.90;;;;;;;-12.22;50.46;100693.63;107478;1259;72762;-39
2024/01/09 00:18:58;;;;;;;15.30;7.30;;;;;;;-12.21;50.58;100697.15;107622;1253;60434;-39
2024/01/09 00:21:26;;;;;;;16.80;7.70;;;;;;;-12.20;50.39;100695.51;107643;1253;60407;-39
2024/01/09 00:23:53;;;;;;;14.80;7.10;;;;;;;-12.19;50.45;100698.20;107645;1253;73794;-39
2024/01/09 00:26:21;;;;;;;16.60;6.90;;;;;;;-12.19;50.54;100699.14;107506;1254;67573;-39
2024/01/09 00:28:49;;;;;;;15.00;6.40;;;;;;;-12.17;50.19;100705.79;107499;1253;72422;-37
2024/01/09 00:31:16;;;;;;;20.20;7.00;;;;;;;-12.13;50.07;100710.52;107620;1254;60549;-38
2024/01/09 00:33:44;;;;;;;16.90;7.20;;;;;;;-12.06;50.19;100710.38;107486;1254;60288;-38
2024/01/09 00:36:12;;;;;;;14.70;6.90;;;;;;;-12.03;50.25;100712.57;107473;1254;74242;-38
2024/01/09 00:38:39;;;;;;;14.00;6.20;;;;;;;-12.02;49.72;100708.70;107633;1254;67511;-38
2024/01/09 00:41:07;;;;;;;16.40;7.30;;;;;;;-12.06;49.93;100709.38;107609;1254;71369;-38
2024/01/09 00:43:34;;;;;;;16.40;6.50;;;;;;;-12.05;49.70;100711.40;107631;1257;60326;-38
2024/01/09 00:46:02;;;;;;;12.60;6.10;;;;;;;-12.06;49.46;100720.48;107610;1252;60370;-38
2024/01/09 00:48:29;;;;;;;15.90;7.40;;;;;;;-12.08;49.78;100718.04;107635;1252;73790;-38
2024/01/09 00:50:57;;;;;;;17.10;7.00;;;;;;;-12.09;50.04;100719.55;107605;1254;67551;-39
2024/01/09 00:53:26;;;;;;;16.90;7.00;;;;;;;-12.13;49.82;100719.56;107625;1254;71347;-38
2024/01/09 00:55:53;;;;;;;13.30;6.10;;;;;;;-12.23;49.92;100718.82;107611;1253;60530;-38
2024/01/09 00:58:21;;;;;;;10.70;5.50;;;;;;;-12.34;49.74;100712.59;106734;1254;1002872;-38
2024/01/09 01:00:48;;;;;;;14.20;6.50;;;;;;;-12.35;49.51;100712.44;107519;1252;73156;-38
2024/01/09 01:03:16;;;;;;;15.70;7.00;;;;;;;-12.37;49.55;100713.31;107592;1254;66313;-38
2024/01/09 01:05:43;;;;;;;13.60;6.30;;;;;;;-12.43;49.61;100720.52;107601;1253;72714;-38
2024/01/09 01:08:11;;;;;;;15.50;6.60;;;;;;;-12.44;49.71;100719.38;107479;1254;60370;-38
2024/01/09 01:10:39;;;;;;;13.00;6.20;;;;;;;-12.39;49.85;100717.76;107609;1253;60614;-38
2024/01/09 01:13:06;;;;;;;16.70;6.50;;;;;;;-12.30;49.95;100723.73;107500;1254;73880;-38
2024/01/09 01:15:34;;;;;;;14.90;6.60;;;;;;;-12.24;49.82;100719.61;107651;1254;66274;-38
2024/01/09 01:18:02;;;;;;;14.90;7.20;;;;;;;-12.17;49.72;100715.16;107598;1254;72742;-38
2024/01/09 01:20:30;;;;;;;16.70;6.90;;;;;;;-12.15;49.72;100717.80;107549;1254;60564;-38
2024/01/09 01:22:57;;;;;;;10.40;5.80;;;;;;;-12.12;49.69;100717.14;107541;1254;60454;-38
2024/01/09 01:25:25;;;;;;;15.90;6.50;;;;;;;-12.13;49.65;100721.33;107477;1254;73880;-38
2024/01/09 01:27:52;;;;;;;13.40;6.00;;;;;;;-12.21;49.59;100722.91;107534;1253;67878;-38
2024/01/09 01:30:20;;;;;;;14.80;6.90;;;;;;;-12.25;50.00;100724.27;107539;1259;71776;-39
2024/01/09 01:32:47;;;;;;;12.70;5.50;;;;;;;-12.29;50.02;100724.88;106734;1259;1003816;-38
2024/01/09 01:35:15;;;;;;;12.70;6.00;;;;;;;-12.27;50.05;100727.96;106737;1254;1003440;-38
2024/01/09 01:37:42;;;;;;;14.90;5.30;;;;;;;-12.22;50.35;100729.52;107449;1253;72625;-38
2024/01/09 01:40:11;;;;;;;11.70;5.30;;;;;;;-12.28;49.93;100733.58;107482;1254;67645;-38
2024/01/09 01:42:38;;;;;;;13.40;5.00;;;;;;;-12.30;50.24;100725.11;107456;1259;73037;-38
2024/01/09 01:45:14;;;;;;;12.90;5.30;;;;;;;-12.27;50.23;100730.00;107486;1254;61052;-38
2024/01/09 01:47:44;;;;;;;12.70;5.00;;;;;;;-12.25;50.07;100731.25;107481;1254;60467;-38
2024/01/09 01:50:12;;;;;;;13.40;5.80;;;;;;;-12.22;49.79;100731.98;107473;1253;73852;-38
2024/01/09 01:52:41;;;;;;;11.00;5.10;;;;;;;-12.20;50.01;100734.36;107455;1254;66752;-38
2024/01/09 01:55:09;;;;;;;13.20;6.20;;;;;;;-12.13;49.77;100733.03;107441;1254;73050;-39
2024/01/09 01:57:37;;;;;;;10.50;4.90;;;;;;;-12.11;49.78;100735.36;107515;1253;60452;-38
2024/01/09 02:00:06;;;;;;;13.60;5.40;;;;;;;-12.10;49.49;100737.30;107479;1254;59324;-39
2024/01/09 02:02:37;;;;;;;12.30;5.90;;;;;;;-12.06;49.62;100737.41;107525;1254;72574;-39
2024/01/09 02:05:05;;;;;;;8.60;3.80;;;;;;;-12.10;49.75;100735.81;107455;1253;66779;-38
2024/01/09 02:07:33;;;;;;;12.10;5.40;;;;;;;-12.19;49.60;100739.34;107504;1253;72638;-39
2024/01/09 02:10:02;;;;;;;9.20;4.80;;;;;;;-12.30;49.85;100744.40;107401;1254;60322;-38
2024/01/09 02:12:30;;;;;;;8.80;3.80;;;;;;;-12.41;50.02;100750.66;107367;1254;59304;-38
2024/01/09 02:14:57;;;;;;;13.30;5.30;;;;;;;-12.46;49.99;100750.59;107434;1259;73890;-39
2024/01/09 02:17:25;;;;;;;10.40;4.70;;;;;;;-12.46;50.33;100756.36;107474;1254;67702;-39
2024/01/09 02:19:58;;;;;;;13.30;5.10;;;;;;;-12.47;49.98;100756.85;107287;1254;72693;-38
2024/01/09 02:22:25;;;;;;;;;;;;;;;-12.50;50.23;100756.45;107362;1254;60620;-39
2024/01/09 02:24:53;;;;;;;10.30;4.40;;;;;;;-12.54;50.31;100752.80;107468;1254;59299;-39
2024/01/09 02:27:41;;;;;;;14.00;4.90;;;;;;;-12.54;50.63;100753.17;107458;1254;72518;-38
2024/01/09 02:30:09;;;;;;;10.20;4.80;;;;;;;-12.47;50.28;100754.58;107433;1253;67687;-39
2024/01/09 02:32:37;;;;;;;11.30;4.90;;;;;;;-12.46;50.39;100754.08;107492;1254;72648;-39
2024/01/09 02:35:05;;;;;;;12.90;6.20;;;;;;;-12.43;50.46;100752.39;107259;1257;60924;-39
2024/01/09 02:37:33;;;;;;;12.20;5.40;;;;;;;-12.37;50.30;100752.45;107535;1254;60289;-39
2024/01/09 02:40:00;;;;;;;13.00;5.40;;;;;;;-12.28;50.49;100754.23;107403;1254;74151;-39
2024/01/09 02:42:29;;;;;;;9.60;4.90;;;;;;;-12.17;50.69;100753.20;107580;1254;68024;-39
2024/01/09 02:44:56;;;;;;;9.70;4.40;;;;;;;-12.08;50.64;100750.92;107419;1254;72723;-38
2024/01/09 02:47:26;;;;;;;10.00;4.40;;;;;;;-12.02;50.36;100745.63;107500;1254;60430;-39
2024/01/09 02:49:53;;;;;;;11.80;4.80;;;;;;;-12.05;50.04;100751.14;106725;1254;1002967;-39
2024/01/09 02:52:21;;;;;;;14.20;5.30;;;;;;;-12.11;50.25;100745.33;107507;1253;72616;-38
2024/01/09 02:54:48;;;;;;;15.00;6.30;;;;;;;-12.09;50.03;100744.07;107452;1254;66475;-39
2024/01/09 02:57:16;;;;;;;16.30;5.90;;;;;;;-12.05;49.87;100745.42;107492;1253;72513;-39
2024/01/09 02:59:43;;;;;;;16.00;6.40;;;;;;;-11.97;50.31;100738.38;106731;1257;1003251;-39
2024/01/09 03:02:11;;;;;;;14.50;5.80;;;;;;;-11.91;50.12;100746.03;107511;1254;60399;-39
2024/01/09 03:04:38;;;;;;;14.30;5.80;;;;;;;-11.90;49.95;100746.67;107490;1253;74302;-39
2024/01/09 03:07:06;;;;;;;11.50;5.50;;;;;;;-11.94;50.09;100751.84;107485;1253;66322;-38
2024/01/09 03:09:34;;;;;;;11.90;5.30;;;;;;;-11.91;49.97;100749.20;107470;1254;71390;-39
2024/01/09 03:12:02;;;;;;;11.80;5.30;;;;;;;-11.88;49.83;100747.60;107260;1254;60876;-39
2024/01/09 03:14:29;;;;;;;15.10;5.90;;;;;;;-11.82;50.05;100746.98;106763;1253;1003629;-39
2024/01/09 03:16:57;;;;;;;15.10;5.80;;;;;;;-11.75;49.58;100750.30;107498;1254;73965;-38
2024/01/09 03:19:24;;;;;;;15.40;5.50;;;;;;;-11.81;49.58;100751.15;107553;1251;68181;-39
2024/01/09 03:21:52;;;;;;;11.50;5.40;;;;;;;-11.85;49.45;100752.77;107603;1254;70369;-39
2024/01/09 03:24:19;;;;;;;13.20;5.00;;;;;;;-11.81;49.44;100748.54;107711;1251;60890;-38
2024/01/09 03:26:47;;;;;;;13.20;5.20;;;;;;;-11.78;49.71;100749.66;107630;1251;60554;-39
2024/01/09 03:29:18;;;;;;;10.70;5.40;;;;;;;-11.69;49.69;100753.02;107672;1251;73207;-39
2024/01/09 03:31:45;;;;;;;13.50;5.40;;;;;;;-11.65;49.34;100752.77;107630;1251;67594;-38
2024/01/09 03:34:13;;;;;;;12.10;5.30;;;;;;;-11.70;49.17;100749.02;107607;1251;72347;-39
2024/01/09 03:36:46;;;;;;;10.90;4.60;;;;;;;-11.77;49.24;100748.59;107621;1251;60862;-39
2024/01/09 03:39:16;;;;;;;11.00;4.40;;;;;;;-11.82;49.27;100748.33;107623;1251;59334;-39
2024/01/09 03:41:43;;;;;;;11.00;4.80;;;;;;;-11.91;49.22;100749.16;107610;1251;73827;-38
2024/01/09 03:44:12;;;;;;;9.40;4.80;;;;;;;-11.97;49.56;100754.23;107773;1251;66422;-39
2024/01/09 03:46:40;;;;;;;12.90;5.40;;;;;;;-12.04;49.63;100754.76;107628;1251;71477;-39
2024/01/09 03:49:08;;;;;;;9.80;4.70;;;;;;;-12.13;49.69;100754.35;107699;1251;60981;-39
2024/01/09 03:51:36;;;;;;;15.70;5.30;;;;;;;-12.13;50.06;100757.73;107686;1251;60427;-39
2024/01/09 03:54:04;;;;;;;9.60;4.60;;;;;;;-12.18;49.87;100754.45;107623;1251;73861;-38
2024/01/09 03:56:31;;;;;;;10.00;4.50;;;;;;;-12.28;50.01;100755.30;107732;1251;67520;-39
2024/01/09 03:58:59;;;;;;;12.00;4.90;;;;;;;-12.40;50.23;100753.17;107609;1251;72649;-39
2024/01/09 04:01:26;;;;;;;9.60;4.60;;;;;;;-12.43;50.37;100750.94;107662;1251;60329;-39
2024/01/09 04:03:54;;;;;;;8.80;4.20;;;;;;;-12.39;50.42;100748.03;107638;1251;60316;-39
2024/01/09 04:06:21;;;;;;;10.50;4.80;;;;;;;-12.36;50.59;100753.63;107746;1251;73816;-39
2024/01/09 04:08:49;;;;;;;10.00;5.00;;;;;;;-12.35;50.39;100752.48;107765;1251;67625;-39
2024/01/09 04:11:16;;;;;;;13.30;5.60;;;;;;;-12.36;50.49;100750.99;107751;1253;71347;-39
2024/01/09 04:13:44;;;;;;;14.10;6.30;;;;;;;-12.35;50.48;100753.35;107718;1251;61031;-39
2024/01/09 04:16:12;;;;;;;14.70;5.70;;;;;;;-12.28;50.41;100755.31;107634;1251;60469;-39
2024/01/09 04:18:40;;;;;;;14.40;5.90;;;;;;;-12.23;50.30;100760.08;107635;1251;72643;-39
2024/01/09 04:21:07;;;;;;;10.80;5.30;;;;;;;-12.08;50.44;100761.63;107543;1254;66610;-39
2024/01/09 04:23:35;;;;;;;12.40;5.20;;;;;;;-11.96;50.06;100759.55;107585;1253;71123;-39
2024/01/09 04:26:03;;;;;;;11.50;5.00;;;;;;;-11.90;49.73;100759.23;107644;1254;61186;-39
2024/01/09 04:28:30;;;;;;;10.60;4.90;;;;;;;-11.87;49.65;100755.25;107608;1253;60466;-38
2024/01/09 04:30:58;;;;;;;9.50;4.50;;;;;;;-11.90;49.23;100758.18;107578;1253;71595;-39
2024/01/09 04:33:25;;;;;;;11.30;5.10;;;;;;;-11.94;49.37;100755.67;107622;1254;66600;-39
2024/01/09 04:35:54;;;;;;;9.60;4.50;;;;;;;-11.93;49.29;100758.11;107571;1253;71214;-39
2024/01/09 04:38:22;;;;;;;9.90;4.80;;;;;;;-11.96;49.18;100759.91;107563;1253;60309;-38
2024/01/09 04:40:49;;;;;;;13.50;5.60;;;;;;;-12.00;49.08;100766.27;107571;1254;60299;-39
2024/01/09 04:43:17;;;;;;;10.20;5.00;;;;;;;-12.03;49.24;100767.36;107576;1257;72642;-39
2024/01/09 04:45:44;;;;;;;10.10;4.80;;;;;;;-12.02;49.52;100769.80;107599;1253;66878;-39
2024/01/09 04:48:12;;;;;;;11.60;4.80;;;;;;;-11.94;49.54;100768.84;107564;1252;71591;-39
2024/01/09 04:50:40;;;;;;;13.10;5.10;;;;;;;-11.90;49.52;100769.61;107606;1254;60420;-39
2024/01/09 04:53:07;;;;;;;11.40;5.10;;;;;;;-11.85;49.42;100774.70;107571;1254;60294;-39
2024/01/09 04:55:35;;;;;;;11.10;4.90;;;;;;;-11.82;49.50;100771.02;107601;1254;74023;-38
2024/01/09 04:58:03;;;;;;;10.40;4.60;;;;;;;-11.83;49.38;100768.99;107600;1253;66598;-38
2024/01/09 05:00:30;;;;;;;11.10;4.70;;;;;;;-11.77;49.46;100770.80;107570;1254;72464;-39
2024/01/09 05:02:58;;;;;;;11.10;5.20;;;;;;;-11.68;49.37;100770.77;107614;1254;60894;-39
2024/01/09 05:05:25;;;;;;;9.20;4.80;;;;;;;-11.67;49.21;100772.91;107523;1254;60345;-39
2024/01/09 05:07:53;;;;;;;12.30;5.30;;;;;;;-11.68;49.29;100771.25;107693;1252;72549;-39
2024/01/09 05:10:20;;;;;;;14.10;5.40;;;;;;;-11.67;49.07;100765.56;107624;1253;66597;-39
2024/01/09 05:12:48;;;;;;;13.90;5.60;;;;;;;-11.74;49.10;100765.00;107578;1253;71131;-38
2024/01/09 05:15:15;;;;;;;12.10;5.40;;;;;;;-11.78;48.77;100764.23;107565;1254;60929;-39
2024/01/09 05:17:43;;;;;;;13.00;5.20;;;;;;;-11.82;48.89;100763.40;107603;1257;60805;-40
2024/01/09 05:20:10;;;;;;;12.40;5.40;;;;;;;-11.95;49.43;100768.58;107593;1252;73790;-40
2024/01/09 05:22:38;;;;;;;14.60;5.80;;;;;;;-11.98;49.28;100768.00;107570;1253;67583;-40
2024/01/09 05:25:08;;;;;;;15.80;6.00;;;;;;;-11.99;49.46;100769.80;107547;1253;72431;-39
2024/01/09 05:27:35;;;;;;;16.60;6.00;;;;;;;-11.97;49.47;100764.36;107593;1253;61059;-39
2024/01/09 05:30:03;;;;;;;11.30;5.60;;;;;;;-11.96;49.41;100763.55;107670;1253;60051;-40
2024/01/09 05:32:31;;;;;;;12.10;5.60;;;;;;;-11.96;49.41;100766.35;107724;1254;73827;-39
2024/01/09 05:34:59;;;;;;;12.90;5.60;;;;;;;-11.99;49.43;100773.10;107549;1254;66341;-39
2024/01/09 05:37:26;;;;;;;12.40;5.60;;;;;;;-12.01;49.67;100774.89;107595;1253;71525;-39
2024/01/09 05:39:54;;;;;;;12.30;5.80;;;;;;;-11.99;49.58;100774.54;107594;1253;60843;-39
2024/01/09 05:42:21;;;;;;;12.10;5.60;;;;;;;-11.97;49.29;100767.63;107576;1254;60024;-40
2024/01/09 05:44:49;;;;;;;11.90;5.20;;;;;;;-11.92;49.63;100766.00;107576;1253;74340;-37
2024/01/09 05:47:17;;;;;;;10.80;5.30;;;;;;;-11.83;49.50;100768.70;107590;1254;66277;-38
2024/01/09 05:49:44;;;;;;;12.30;5.20;;;;;;;-11.81;49.34;100770.49;107694;1253;71371;-39
2024/01/09 05:52:12;;;;;;;14.10;5.70;;;;;;;-11.75;49.27;100776.58;107595;1254;60552;-38
2024/01/09 05:54:45;;;;;;;14.10;5.90;;;;;;;-11.69;49.26;100780.02;107694;1253;60440;-38
2024/01/09 05:57:13;;;;;;;21.60;6.10;;;;;;;-11.62;49.40;100785.86;107700;1253;73013;-38
2024/01/09 05:59:40;;;;;;;11.50;5.50;;;;;;;-11.52;49.49;100785.84;107590;1254;68014;-38
2024/01/09 06:02:08;;;;;;;12.60;4.90;;;;;;;-11.44;49.28;100788.20;107662;1254;72427;-39
2024/01/09 06:04:35;;;;;;;12.60;5.00;;;;;;;-11.39;49.06;100788.99;107685;1253;60881;-38
2024/01/09 06:07:03;;;;;;;12.20;5.40;;;;;;;-11.33;48.64;100794.25;107561;1254;60510;-38
2024/01/09 06:09:31;;;;;;;11.70;5.10;;;;;;;-11.28;48.70;100793.48;107588;1257;73933;-38
2024/01/09 06:11:58;;;;;;;9.50;4.60;;;;;;;-11.19;48.76;100795.48;107578;1253;68092;-38
2024/01/09 06:14:26;;;;;;;8.90;4.40;;;;;;;-11.17;48.43;100790.31;107572;1253;71446;-38
2024/01/09 06:16:53;;;;;;;10.00;4.70;;;;;;;-11.24;48.38;100789.34;106809;1253;1003889;-38
2024/01/09 06:19:21;;;;;;;11.30;5.00;;;;;;;-11.35;48.80;100790.16;107611;1253;60498;-39
2024/01/09 06:21:48;;;;;;;11.20;4.80;;;;;;;-11.47;48.60;100794.31;107649;1251;73042;-38
2024/01/09 06:24:16;;;;;;;12.20;5.00;;;;;;;-11.51;48.79;100795.17;106269;1251;1003707;-38
2024/01/09 06:26:43;;;;;;;11.30;5.10;;;;;;;-11.49;49.04;100796.87;107628;1251;72670;-38
2024/01/09 06:29:11;;;;;;;9.90;5.10;;;;;;;-11.46;49.15;100797.87;107535;1256;60856;-38
2024/01/09 06:31:40;;;;;;;11.20;4.90;;;;;;;-11.41;49.29;100808.00;107363;1251;329989;-38
2024/01/09 06:34:08;;;;;;;10.10;4.50;;;;;;;-11.29;49.98;100800.91;107631;1252;73815;-38
2024/01/09 06:37:57;;;;;;;8.70;4.40;;;;;;;-11.14;49.17;100794.25;104275;1290;615537;-39
2024/01/09 06:40:24;;;;;;;9.40;3.90;;;;;;;-11.23;49.33;100802.92;106730;1264;59150;-39
2024/01/09 06:42:51;;;;;;;9.10;4.20;;;;;;;-11.25;49.91;100808.62;106768;1264;60038;-39
2024/01/09 06:45:18;;;;;;;8.80;3.90;;;;;;;-11.21;50.09;100811.20;106812;1264;72653;-39
2024/01/09 06:47:45;;;;;;;10.40;4.60;;;;;;;-11.15;50.19;100808.58;106781;1264;68579;-39
2024/01/09 06:50:12;;;;;;;9.40;4.70;;;;;;;-11.01;50.20;100813.94;106629;1264;168136;-40
2024/01/09 06:52:56;;;;;;;7.90;4.00;;;;;;;-10.90;50.20;100822.44;106963;1263;61137;-40
2024/01/09 06:55:23;;;;;;;8.20;4.40;;;;;;;-10.80;50.33;100825.18;106991;1264;60271;-39
2024/01/09 06:57:49;;;;;;;8.70;4.10;;;;;;;-10.66;50.37;100826.75;106941;1264;72811;-39
2024/01/09 07:00:18;;;;;;;9.60;4.90;;;;;;;-10.54;50.40;100831.49;106875;1264;68015;-39
2024/01/09 07:02:45;;;;;;;11.00;5.10;;;;;;;-10.42;50.24;100835.05;106914;1263;73506;-39
2024/01/09 07:05:12;;;;;;;8.10;3.80;;;;;;;-10.36;50.31;100835.48;106897;1264;59532;-39
2024/01/09 07:07:39;;;;;;;10.10;4.40;;;;;;;-10.36;50.05;100837.23;107006;1264;60120;-39
2024/01/09 07:10:16;;;;;;;12.30;5.10;;;;;;;-10.47;50.07;100833.95;107030;1262;73318;-39
2024/01/09 07:12:43;;;;;;;13.20;4.70;;;;;;;-10.55;50.73;100841.65;106934;1264;68126;-39
2024/01/09 07:15:13;;;;;;;9.90;4.50;;;;;;;-10.61;51.30;100835.29;106870;1262;72763;-39
2024/01/09 07:17:41;;;;;;;8.80;4.70;;;;;;;-10.48;51.75;100842.94;107005;1264;60470;-40
2024/01/09 07:20:08;;;;;;;8.40;4.00;;;;;;;-10.44;52.82;100841.69;107084;1263;60340;-39
2024/01/09 07:22:35;;;;;;;9.20;4.70;;;;;;;-10.43;53.40;100844.71;107027;1266;73487;-40
2024/01/09 07:25:03;;;;;;;7.90;4.20;;;;;;;-10.36;54.43;100838.70;107238;1259;67879;-40
2024/01/09 07:27:29;;;;;;;9.20;4.50;;;;;;;-10.37;56.13;100841.23;107548;1254;72553;-40
2024/01/09 07:29:56;;;;;;;9.60;4.80;;;;;;;-10.40;57.35;100834.45;106770;1254;1002940;-39
2024/01/09 07:32:23;;;;;;;9.40;4.10;;;;;;;-10.43;58.13;100827.23;106763;1254;1003181;-39
2024/01/09 07:34:50;;;;;;;8.70;4.40;;;;;;;-10.43;59.29;100826.61;106735;1254;1003012;-39
2024/01/09 07:37:20;;;;;;;7.70;4.40;;;;;;;-10.34;60.07;100826.66;107508;1254;67794;-39
2024/01/09 07:39:48;;;;;;;8.10;3.70;;;;;;;-10.19;61.19;100832.20;107447;1254;73002;-39
2024/01/09 07:42:15;;;;;;;6.50;3.60;;;;;;;-10.12;61.79;100827.27;107485;1254;60796;-39
2024/01/09 07:44:42;;;;;;;8.70;3.40;;;;;;;-9.99;61.94;100827.21;107505;1255;60370;-39
2024/01/09 07:47:11;;;;;;;5.70;3.70;;;;;;;-9.84;62.53;100830.06;107493;1254;73406;-39
2024/01/09 07:49:40;;;;;;;6.70;3.40;;;;;;;-9.76;62.86;100834.30;106762;1255;1003350;-39
2024/01/09 07:52:09;;;;;;;5.10;3.30;;;;;;;-9.68;63.06;100835.14;107516;1254;72430;-39
2024/01/09 07:54:35;;;;;;;6.60;3.90;;;;;;;-9.62;63.62;100832.84;107496;1260;59768;-39
2024/01/09 07:57:02;;;;;;;7.60;4.00;;;;;;;-9.67;64.11;100835.45;107484;1258;59646;-39
2024/01/09 07:59:29;;;;;;;6.70;4.20;;;;;;;-9.73;64.86;100834.44;107535;1254;73030;-39
2024/01/09 08:01:56;;;;;;;8.50;4.30;;;;;;;-9.80;65.00;100831.77;107514;1255;68201;-39
2024/01/09 08:04:22;;;;;;;8.80;4.30;;;;;;;-9.82;65.35;100835.73;106705;1254;1003480;-39
2024/01/09 08:06:53;;;;;;;7.70;4.20;;;;;;;-9.71;65.74;100837.30;107550;1254;61976;-39
2024/01/09 08:09:20;;;;;;;8.40;4.80;;;;;;;-9.60;65.99;100838.52;107499;1254;60401;-39
2024/01/09 08:11:46;;;;;;;8.90;4.60;;;;;;;-9.52;66.29;100839.50;107456;1255;73427;-39
2024/01/09 08:14:14;;;;;;;8.50;4.70;;;;;;;-9.45;66.42;100840.52;107507;1258;68212;-39
2024/01/09 08:16:40;;;;;;;8.40;4.10;;;;;;;-9.32;66.78;100839.86;106746;1255;1002897;-39
2024/01/09 08:19:08;;;;;;;9.20;4.40;;;;;;;-9.20;66.71;100838.17;107467;1259;61277;-39
2024/01/09 08:21:35;;;;;;;8.90;4.20;;;;;;;-9.11;66.87;100840.54;107498;1254;60142;-39
2024/01/09 08:24:06;;;;;;;8.10;4.30;;;;;;;-9.06;66.87;100837.89;107487;1254;73480;-39
2024/01/09 08:26:32;;;;;;;9.20;5.00;;;;;;;-9.04;67.08;100840.93;107478;1259;68085;-39
2024/01/09 08:29:01;;;;;;;8.00;4.50;;;;;;;-9.02;66.96;100839.80;107461;1255;73231;-39
2024/01/09 08:31:28;;;;;;;9.70;4.30;;;;;;;-8.97;67.43;100840.39;106790;1254;1002867;-39
2024/01/09 08:33:55;;;;;;;7.40;3.90;;;;;;;-8.91;67.31;100838.79;106749;1255;1003191;-39
2024/01/09 08:36:22;;;;;;;8.40;4.20;;;;;;;-8.85;67.34;100842.46;107531;1254;59618;-39
2024/01/09 08:38:49;;;;;;;8.50;4.00;;;;;;;-8.75;67.31;100844.80;107482;1260;67870;-39
2024/01/09 08:41:17;;;;;;;10.60;4.50;;;;;;;-8.61;67.43;100844.04;107479;1254;73219;-39
2024/01/09 08:43:44;;;;;;;7.50;3.70;;;;;;;-8.48;67.40;100840.70;107514;1254;59844;-39
2024/01/09 08:46:11;;;;;;;6.90;4.00;;;;;;;-8.36;67.28;100844.85;107464;1254;59597;-39
2024/01/09 08:48:37;;;;;;;8.20;4.20;;;;;;;-8.24;67.21;100846.02;107473;1254;73795;-39
2024/01/09 08:51:05;;;;;;;9.90;4.20;;;;;;;-8.12;67.18;100845.02;107502;1254;68022;-40
2024/01/09 08:53:39;;;;;;;7.40;4.30;;;;;;;-8.01;67.31;100839.36;107482;1255;72820;-40
2024/01/09 08:56:06;;;;;;;11.10;4.40;;;;;;;-7.94;66.95;100837.34;106733;1259;1003010;-40
2024/01/09 08:58:32;;;;;;;10.30;5.20;;;;;;;-7.90;66.96;100836.73;107514;1254;60011;-39
2024/01/09 09:00:59;;;;;;;8.10;4.40;;;;;;;-7.84;67.05;100837.01;107480;1254;72770;-39
2024/01/09 09:03:26;;;;;;;8.20;4.10;;;;;;;-7.77;67.29;100840.09;107503;1258;68053;-39
2024/01/09 09:05:53;;;;;;;9.60;4.60;;;;;;;-7.70;67.25;100840.81;106780;1254;1003765;-39
2024/01/09 09:08:21;;;;;;;6.90;3.70;;;;;;;-7.68;67.22;100847.45;107500;1255;60437;-39
2024/01/09 09:10:47;;;;;;;10.70;4.20;;;;;;;-7.68;67.24;100848.38;107567;1259;59484;-39
2024/01/09 09:13:14;;;;;;;10.00;4.30;;;;;;;-7.60;67.08;100849.95;107491;1256;73586;-39
2024/01/09 09:15:41;;;;;;;6.80;3.60;;;;;;;-7.50;67.09;100852.98;107497;1254;68009;-39
2024/01/09 09:18:08;;;;;;;5.60;4.00;;;;;;;-7.40;67.09;100853.05;107467;1256;72377;-39
2024/01/09 09:20:35;;;;;;;5.60;4.00;;;;;;;-7.29;67.19;100854.40;107503;1254;61428;-38
2024/01/09 09:23:03;;;;;;;8.50;4.40;;;;;;;-7.22;67.26;100856.22;107525;1254;59664;-39
2024/01/09 09:25:30;;;;;;;7.80;5.10;;;;;;;-7.19;67.41;100856.33;107440;1257;73640;-39
2024/01/09 09:27:56;;;;;;;7.60;4.00;;;;;;;-7.18;67.70;100855.64;107451;1258;67207;-39
2024/01/09 09:30:25;;;;;;;8.20;4.80;;;;;;;-7.18;67.94;100856.69;107475;1257;73231;-39
2024/01/09 09:32:54;;;;;;;8.60;4.60;;;;;;;-7.23;68.05;100850.54;107462;1256;59634;-39
2024/01/09 09:35:21;;;;;;;5.70;3.60;;;;;;;-7.31;68.35;100853.73;107510;1257;59193;-39
2024/01/09 09:37:48;;;;;;;10.40;4.80;;;;;;;-7.39;68.47;100855.68;107476;1260;73124;-40
2024/01/09 09:40:15;;;;;;;11.70;5.10;;;;;;;-7.46;68.70;100850.98;107482;1257;68271;-40
2024/01/09 09:42:43;;;;;;;7.00;3.90;;;;;;;-7.37;69.16;100848.95;107515;1260;72509;-40
2024/01/09 09:45:13;;;;;;;7.50;4.50;;;;;;;-7.20;69.07;100845.09;107300;1260;61698;-39
2024/01/09 09:47:40;;;;;;;;;;;;;;;-7.05;68.77;100850.98;107502;1259;60355;-40
2024/01/09 09:50:09;;;;;;;7.20;4.80;;;;;;;-6.94;68.82;100850.65;107507;1260;71707;-40
2024/01/09 09:52:40;;;;;;;7.10;4.10;;;;;;;-6.87;68.82;100853.15;107489;1257;66844;-40
2024/01/09 09:55:08;;;;;;;10.70;5.20;;;;;;;-6.82;68.74;100851.61;107481;1258;72440;-40
2024/01/09 09:57:36;;;;;;;9.50;5.10;;;;;;;-6.86;68.47;100857.23;107532;1257;59610;-39
2024/01/09 10:00:04;;;;;;;9.40;5.20;;;;;;;-6.92;68.70;100859.04;107475;1257;60117;-40
2024/01/09 10:02:31;;;;;;;9.10;4.70;;;;;;;-6.95;68.81;100859.20;107497;1257;72784;-39
2024/01/09 10:05:01;;;;;;;10.80;5.30;;;;;;;-6.96;69.07;100859.98;107483;1260;67640;-40
2024/01/09 10:07:28;;;;;;;12.00;5.30;;;;;;;-6.92;69.43;100853.11;107486;1257;71083;-39
2024/01/09 10:09:55;;;;;;;9.20;5.10;;;;;;;-6.89;69.36;100852.79;107420;1257;60963;-38
2024/01/09 10:12:25;;;;;;;10.60;5.30;;;;;;;-6.89;69.45;100852.39;106488;1261;1002889;-38
2024/01/09 10:15:03;;;;;;;10.50;5.40;;;;;;;-6.86;69.60;100848.10;107475;1258;73075;-39
2024/01/09 10:17:30;;;;;;;11.90;6.00;;;;;;;-6.77;69.37;100844.58;107478;1259;67764;-39
2024/01/09 10:19:57;;;;;;;10.20;5.00;;;;;;;-6.61;69.39;100846.52;107482;1260;73022;-40
2024/01/09 10:22:27;;;;;;;9.90;4.80;;;;;;;-6.45;69.11;100836.91;107417;1260;61108;-40
2024/01/09 10:24:54;;;;;;;7.50;4.30;;;;;;;-6.33;69.02;100832.05;106668;1260;1002898;-40
2024/01/09 10:27:21;;;;;;;9.80;4.30;;;;;;;-6.28;68.78;100829.17;107317;1258;72830;-40
2024/01/09 10:29:48;;;;;;;9.40;4.90;;;;;;;-6.24;69.24;100822.60;107451;1258;68160;-40
2024/01/09 10:32:18;;;;;;;10.10;4.60;;;;;;;-6.17;69.07;100816.67;106688;1260;1003096;-40
2024/01/09 10:34:45;;;;;;;7.60;4.60;;;;;;;-6.12;69.11;100817.98;107498;1254;59531;-40
2024/01/09 10:37:12;;;;;;;8.40;4.90;;;;;;;-6.10;68.89;100821.54;107447;1260;60043;-40
2024/01/09 10:39:39;;;;;;;10.20;4.90;;;;;;;-6.13;68.87;100822.21;107474;1255;73415;-40
2024/01/09 10:42:10;;;;;;;8.90;4.70;;;;;;;-6.18;68.71;100819.10;107523;1259;67921;-38
2024/01/09 10:44:39;;;;;;;10.20;4.90;;;;;;;-6.18;69.14;100817.68;107485;1257;73061;-37
2024/01/09 10:47:10;;;;;;;9.40;4.80;;;;;;;-6.11;69.34;100811.80;107461;1255;60468;-39
2024/01/09 10:49:40;;;;;;;9.40;4.90;;;;;;;-6.10;69.09;100809.52;106694;1255;1003267;-39
2024/01/09 10:52:16;;;;;;;8.60;4.50;;;;;;;-6.13;69.01;100809.23;106711;1260;1003100;-39
2024/01/09 10:54:44;;;;;;;10.40;4.70;;;;;;;-6.16;69.11;100810.31;107457;1260;67977;-39
2024/01/09 10:57:15;;;;;;;7.80;4.30;;;;;;;-6.16;69.33;100809.67;107448;1259;72674;-38
2024/01/09 10:59:44;;;;;;;9.70;5.00;;;;;;;-6.12;69.28;100808.39;107452;1255;61827;-39
2024/01/09 11:02:21;;;;;;;9.90;4.40;;;;;;;-6.00;69.19;100808.11;107461;1260;60315;-39
2024/01/09 11:04:49;;;;;;;10.10;4.60;;;;;;;-5.89;69.03;100802.48;107476;1255;73742;-39
2024/01/09 11:07:16;;;;;;;8.90;4.80;;;;;;;-5.83;69.16;100803.36;107494;1260;67945;-39
2024/01/09 11:09:47;;;;;;;8.50;4.80;;;;;;;-5.79;69.26;100804.42;107505;1257;72519;-39
2024/01/09 11:12:47;;;;;;;9.80;4.30;;;;;;;-5.77;69.17;100806.45;107456;1256;60553;-39